sensor_id;sensor_type;location;lat;lon;timestamp;pressure;altitude;pressure_sealevel;temperature;humidity
55517;BME280;41724;51.176;-0.708;2024-03-06T00:00:55;101348.08;;;7.47;62.77
55517;BME280;41724;51.176;-0.708;2024-03-06T00:03:22;101348.78;;;7.52;62.26
55517;BME280;41724;51.176;-0.708;2024-03-06T00:05:50;101347.06;;;7.48;62.15
55517;BME280;41724;51.176;-0.708;2024-03-06T00:08:17;101349.49;;;7.37;61.71
55517;BME280;41724;51.176;-0.708;2024-03-06T00:10:44;101354.84;;;7.42;62.36
55517;BME280;41724;51.176;-0.708;2024-03-06T00:13:11;101358.11;;;7.49;61.99
55517;BME280;41724;51.176;-0.708;2024-03-06T00:15:38;101358.40;;;7.27;62.02
55517;BME280;41724;51.176;-0.708;2024-03-06T00:18:06;101365.37;;;6.84;62.82
55517;BME280;41724;51.176;-0.708;2024-03-06T00:20:33;101369.52;;;7.26;62.31
55517;BME280;41724;51.176;-0.708;2024-03-06T00:23:00;101370.47;;;7.20;61.30
55517;BME280;41724;51.176;-0.708;2024-03-06T00:25:27;101369.21;;;7.00;62.93
55517;BME280;41724;51.176;-0.708;2024-03-06T00:27:54;101371.00;;;6.92;62.43
55517;BME280;41724;51.176;-0.708;2024-03-06T00:30:21;101371.78;;;6.97;62.48
55517;BME280;41724;51.176;-0.708;2024-03-06T00:32:48;101373.16;;;6.99;62.36
55517;BME280;41724;51.176;-0.708;2024-03-06T00:35:16;101376.24;;;6.87;62.66
55517;BME280;41724;51.176;-0.708;2024-03-06T00:37:43;101380.24;;;7.19;61.64
55517;BME280;41724;51.176;-0.708;2024-03-06T00:40:12;101383.94;;;7.19;61.86
55517;BME280;41724;51.176;-0.708;2024-03-06T00:42:39;101384.31;;;7.19;62.02
55517;BME280;41724;51.176;-0.708;2024-03-06T00:45:06;101388.14;;;6.98;61.83
55517;BME280;41724;51.176;-0.708;2024-03-06T00:47:34;101389.57;;;6.88;61.78
55517;BME280;41724;51.176;-0.708;2024-03-06T00:50:01;101393.07;;;6.82;61.38
55517;BME280;41724;51.176;-0.708;2024-03-06T00:52:28;101393.00;;;6.69;62.60
55517;BME280;41724;51.176;-0.708;2024-03-06T00:54:55;101393.46;;;6.90;61.92
55517;BME280;41724;51.176;-0.708;2024-03-06T00:57:22;101395.84;;;6.70;61.84
55517;BME280;41724;51.176;-0.708;2024-03-06T00:59:49;101395.97;;;6.90;61.42
55517;BME280;41724;51.176;-0.708;2024-03-06T01:02:16;101396.95;;;6.64;60.09
55517;BME280;41724;51.176;-0.708;2024-03-06T01:04:43;101396.28;;;6.82;61.21
55517;BME280;41724;51.176;-0.708;2024-03-06T01:07:10;101396.24;;;6.59;61.09
55517;BME280;41724;51.176;-0.708;2024-03-06T01:09:37;101395.56;;;6.79;60.64
55517;BME280;41724;51.176;-0.708;2024-03-06T01:12:04;101390.06;;;6.80;61.14
55517;BME280;41724;51.176;-0.708;2024-03-06T01:14:32;101388.34;;;6.44;61.11
55517;BME280;41724;51.176;-0.708;2024-03-06T01:16:59;101388.72;;;6.74;61.19
55517;BME280;41724;51.176;-0.708;2024-03-06T01:19:26;101387.39;;;6.44;61.90
55517;BME280;41724;51.176;-0.708;2024-03-06T01:21:53;101385.72;;;6.26;61.99
55517;BME280;41724;51.176;-0.708;2024-03-06T01:24:21;101383.80;;;6.47;61.31
55517;BME280;41724;51.176;-0.708;2024-03-06T01:26:48;101383.59;;;6.44;62.25
55517;BME280;41724;51.176;-0.708;2024-03-06T01:29:15;101385.82;;;6.50;61.88
55517;BME280;41724;51.176;-0.708;2024-03-06T01:31:42;101382.32;;;6.48;61.17
55517;BME280;41724;51.176;-0.708;2024-03-06T01:34:09;101382.82;;;6.04;60.54
55517;BME280;41724;51.176;-0.708;2024-03-06T01:36:36;101386.03;;;6.42;61.12
55517;BME280;41724;51.176;-0.708;2024-03-06T01:39:03;101385.03;;;6.38;61.13
55517;BME280;41724;51.176;-0.708;2024-03-06T01:41:30;101382.19;;;6.49;60.73
55517;BME280;41724;51.176;-0.708;2024-03-06T01:43:58;101387.34;;;6.09;61.60
55517;BME280;41724;51.176;-0.708;2024-03-06T01:46:25;101389.38;;;6.20;60.76
55517;BME280;41724;51.176;-0.708;2024-03-06T01:48:53;101391.03;;;6.21;59.94
55517;BME280;41724;51.176;-0.708;2024-03-06T01:51:20;101394.11;;;6.25;60.50
55517;BME280;41724;51.176;-0.708;2024-03-06T01:53:47;101393.22;;;6.15;60.44
55517;BME280;41724;51.176;-0.708;2024-03-06T01:56:15;101391.82;;;6.03;60.45
55517;BME280;41724;51.176;-0.708;2024-03-06T01:58:43;101391.64;;;6.03;60.47
55517;BME280;41724;51.176;-0.708;2024-03-06T02:01:12;101395.22;;;5.83;61.24
55517;BME280;41724;51.176;-0.708;2024-03-06T02:08:18;101402.39;;;6.28;62.71
55517;BME280;41724;51.176;-0.708;2024-03-06T02:10:45;101403.98;;;5.94;61.17
55517;BME280;41724;51.176;-0.708;2024-03-06T02:13:13;101402.57;;;5.96;60.51
55517;BME280;41724;51.176;-0.708;2024-03-06T02:15:40;101399.17;;;6.07;60.74
55517;BME280;41724;51.176;-0.708;2024-03-06T02:18:07;101395.14;;;5.83;61.29
55517;BME280;41724;51.176;-0.708;2024-03-06T02:20:34;101402.81;;;5.69;61.83
55517;BME280;41724;51.176;-0.708;2024-03-06T02:23:01;101410.32;;;5.78;60.94
55517;BME280;41724;51.176;-0.708;2024-03-06T02:25:29;101413.22;;;5.57;62.31
55517;BME280;41724;51.176;-0.708;2024-03-06T02:27:56;101411.25;;;6.01;61.80
55517;BME280;41724;51.176;-0.708;2024-03-06T02:30:22;101414.23;;;5.76;62.99
55517;BME280;41724;51.176;-0.708;2024-03-06T02:32:49;101413.00;;;6.04;62.66
55517;BME280;41724;51.176;-0.708;2024-03-06T02:35:16;101402.71;;;6.43;61.28
55517;BME280;41724;51.176;-0.708;2024-03-06T02:37:44;101395.80;;;6.36;60.73
55517;BME280;41724;51.176;-0.708;2024-03-06T02:40:11;101395.46;;;6.61;60.54
55517;BME280;41724;51.176;-0.708;2024-03-06T02:42:38;101393.80;;;6.51;60.50
55517;BME280;41724;51.176;-0.708;2024-03-06T02:45:06;101398.62;;;6.35;59.64
55517;BME280;41724;51.176;-0.708;2024-03-06T02:47:33;101395.02;;;6.50;59.79
55517;BME280;41724;51.176;-0.708;2024-03-06T02:50:00;101401.09;;;6.00;60.52
55517;BME280;41724;51.176;-0.708;2024-03-06T02:52:27;101403.02;;;6.30;60.42
55517;BME280;41724;51.176;-0.708;2024-03-06T02:54:54;101395.86;;;6.53;59.71
55517;BME280;41724;51.176;-0.708;2024-03-06T02:57:21;101399.37;;;6.34;60.53
55517;BME280;41724;51.176;-0.708;2024-03-06T02:59:49;101392.55;;;5.99;59.93
55517;BME280;41724;51.176;-0.708;2024-03-06T03:02:15;101385.35;;;4.90;61.89
55517;BME280;41724;51.176;-0.708;2024-03-06T03:04:43;101383.30;;;5.59;61.61
55517;BME280;41724;51.176;-0.708;2024-03-06T03:07:10;101383.95;;;5.45;61.66
55517;BME280;41724;51.176;-0.708;2024-03-06T03:09:37;101380.76;;;5.37;61.94
55517;BME280;41724;51.176;-0.708;2024-03-06T03:12:05;101382.00;;;4.94;62.24
55517;BME280;41724;51.176;-0.708;2024-03-06T03:14:32;101387.17;;;5.33;63.30
55517;BME280;41724;51.176;-0.708;2024-03-06T03:17:00;101387.93;;;5.49;62.28
55517;BME280;41724;51.176;-0.708;2024-03-06T03:19:26;101388.18;;;5.78;61.81
55517;BME280;41724;51.176;-0.708;2024-03-06T03:21:54;101386.60;;;6.07;61.79
55517;BME280;41724;51.176;-0.708;2024-03-06T03:24:21;101387.08;;;6.05;61.63
55517;BME280;41724;51.176;-0.708;2024-03-06T03:26:49;101387.76;;;5.91;60.79
55517;BME280;41724;51.176;-0.708;2024-03-06T03:29:16;101386.89;;;5.89;60.54
55517;BME280;41724;51.176;-0.708;2024-03-06T03:31:43;101388.19;;;5.59;62.03
55517;BME280;41724;51.176;-0.708;2024-03-06T03:34:09;101384.79;;;5.44;62.00
55517;BME280;41724;51.176;-0.708;2024-03-06T03:36:40;101383.59;;;5.01;63.86
55517;BME280;41724;51.176;-0.708;2024-03-06T03:39:07;101381.75;;;4.69;64.00
55517;BME280;41724;51.176;-0.708;2024-03-06T03:41:34;101377.34;;;5.35;63.09
55517;BME280;41724;51.176;-0.708;2024-03-06T03:44:02;101375.23;;;5.59;62.53
55517;BME280;41724;51.176;-0.708;2024-03-06T03:46:29;101380.83;;;5.55;61.78
55517;BME280;41724;51.176;-0.708;2024-03-06T03:48:56;101388.24;;;5.41;62.52
55517;BME280;41724;51.176;-0.708;2024-03-06T03:51:23;101389.52;;;5.85;61.31
55517;BME280;41724;51.176;-0.708;2024-03-06T03:53:50;101386.33;;;5.87;61.83
55517;BME280;41724;51.176;-0.708;2024-03-06T03:56:17;101393.32;;;5.69;61.30
55517;BME280;41724;51.176;-0.708;2024-03-06T03:58:44;101395.23;;;6.13;61.32
55517;BME280;41724;51.176;-0.708;2024-03-06T04:01:12;101396.63;;;6.05;61.30
55517;BME280;41724;51.176;-0.708;2024-03-06T04:03:39;101396.63;;;6.00;60.82
55517;BME280;41724;51.176;-0.708;2024-03-06T04:06:06;101397.41;;;6.32;60.95
55517;BME280;41724;51.176;-0.708;2024-03-06T04:08:33;101396.67;;;5.78;61.31
55517;BME280;41724;51.176;-0.708;2024-03-06T04:11:00;101397.06;;;6.26;60.70
55517;BME280;41724;51.176;-0.708;2024-03-06T04:13:27;101394.35;;;5.90;61.35
55517;BME280;41724;51.176;-0.708;2024-03-06T04:15:54;101394.57;;;6.05;61.49
55517;BME280;41724;51.176;-0.708;2024-03-06T04:18:21;101397.56;;;6.06;61.36
55517;BME280;41724;51.176;-0.708;2024-03-06T04:20:48;101399.74;;;6.41;61.54
55517;BME280;41724;51.176;-0.708;2024-03-06T04:23:15;101400.71;;;6.04;61.60
55517;BME280;41724;51.176;-0.708;2024-03-06T04:25:42;101403.66;;;6.17;61.76
55517;BME280;41724;51.176;-0.708;2024-03-06T04:28:10;101410.37;;;6.03;62.02
55517;BME280;41724;51.176;-0.708;2024-03-06T04:30:37;101410.56;;;6.56;60.86
55517;BME280;41724;51.176;-0.708;2024-03-06T04:33:04;101411.04;;;6.63;60.60
55517;BME280;41724;51.176;-0.708;2024-03-06T04:35:31;101416.22;;;6.40;61.41
55517;BME280;41724;51.176;-0.708;2024-03-06T04:37:58;101414.99;;;6.57;60.71
55517;BME280;41724;51.176;-0.708;2024-03-06T04:40:26;101409.53;;;6.65;60.63
55517;BME280;41724;51.176;-0.708;2024-03-06T04:42:53;101408.87;;;6.62;61.01
55517;BME280;41724;51.176;-0.708;2024-03-06T04:45:20;101415.49;;;6.67;61.26
55517;BME280;41724;51.176;-0.708;2024-03-06T04:47:47;101413.01;;;6.71;61.14
55517;BME280;41724;51.176;-0.708;2024-03-06T04:50:14;101416.44;;;6.47;60.77
55517;BME280;41724;51.176;-0.708;2024-03-06T04:52:42;101419.75;;;6.54;60.19
55517;BME280;41724;51.176;-0.708;2024-03-06T04:55:10;101422.78;;;6.71;60.50
55517;BME280;41724;51.176;-0.708;2024-03-06T04:57:37;101423.38;;;6.95;60.05
55517;BME280;41724;51.176;-0.708;2024-03-06T05:00:05;101428.56;;;6.80;60.42
55517;BME280;41724;51.176;-0.708;2024-03-06T05:02:33;101430.10;;;7.01;60.78
55517;BME280;41724;51.176;-0.708;2024-03-06T05:05:00;101432.45;;;6.80;60.42
55517;BME280;41724;51.176;-0.708;2024-03-06T05:07:27;101436.25;;;6.74;60.27
55517;BME280;41724;51.176;-0.708;2024-03-06T05:09:54;101439.08;;;6.69;60.92
55517;BME280;41724;51.176;-0.708;2024-03-06T05:12:21;101442.57;;;6.85;60.91
55517;BME280;41724;51.176;-0.708;2024-03-06T05:14:48;101444.77;;;6.84;60.32
55517;BME280;41724;51.176;-0.708;2024-03-06T05:17:15;101446.11;;;6.81;60.88
55517;BME280;41724;51.176;-0.708;2024-03-06T05:19:42;101448.52;;;7.37;59.53
55517;BME280;41724;51.176;-0.708;2024-03-06T05:22:10;101449.10;;;6.96;59.43
55517;BME280;41724;51.176;-0.708;2024-03-06T05:24:37;101451.23;;;7.00;59.47
55517;BME280;41724;51.176;-0.708;2024-03-06T05:27:05;101454.93;;;7.00;59.94
55517;BME280;41724;51.176;-0.708;2024-03-06T05:29:31;101456.66;;;7.06;60.29
55517;BME280;41724;51.176;-0.708;2024-03-06T05:31:58;101460.03;;;6.68;60.98
55517;BME280;41724;51.176;-0.708;2024-03-06T05:34:25;101459.62;;;6.78;59.13
55517;BME280;41724;51.176;-0.708;2024-03-06T05:36:53;101456.48;;;6.22;59.56
55517;BME280;41724;51.176;-0.708;2024-03-06T05:39:20;101458.43;;;6.49;60.49
55517;BME280;41724;51.176;-0.708;2024-03-06T05:41:47;101461.21;;;6.60;61.11
55517;BME280;41724;51.176;-0.708;2024-03-06T05:44:14;101463.10;;;6.69;60.82
55517;BME280;41724;51.176;-0.708;2024-03-06T05:46:41;101463.08;;;6.44;60.91
55517;BME280;41724;51.176;-0.708;2024-03-06T05:49:08;101465.74;;;6.49;60.66
55517;BME280;41724;51.176;-0.708;2024-03-06T05:51:35;101468.05;;;6.42;61.06
55517;BME280;41724;51.176;-0.708;2024-03-06T05:54:02;101468.87;;;5.78;61.58
55517;BME280;41724;51.176;-0.708;2024-03-06T05:56:29;101472.25;;;5.84;63.53
55517;BME280;41724;51.176;-0.708;2024-03-06T05:58:56;101473.65;;;6.00;62.69
55517;BME280;41724;51.176;-0.708;2024-03-06T06:01:23;101477.98;;;6.30;62.89
55517;BME280;41724;51.176;-0.708;2024-03-06T06:03:50;101481.98;;;6.30;63.08
55517;BME280;41724;51.176;-0.708;2024-03-06T06:06:17;101483.74;;;6.62;63.07
55517;BME280;41724;51.176;-0.708;2024-03-06T06:08:45;101490.31;;;6.67;63.15
55517;BME280;41724;51.176;-0.708;2024-03-06T06:11:12;101490.28;;;6.73;62.87
55517;BME280;41724;51.176;-0.708;2024-03-06T06:13:39;101494.57;;;6.91;62.26
55517;BME280;41724;51.176;-0.708;2024-03-06T06:16:06;101500.56;;;6.82;63.36
55517;BME280;41724;51.176;-0.708;2024-03-06T06:18:33;101501.94;;;6.91;62.26
55517;BME280;41724;51.176;-0.708;2024-03-06T06:21:00;101506.27;;;7.15;63.05
55517;BME280;41724;51.176;-0.708;2024-03-06T06:23:27;101501.48;;;6.83;63.12
55517;BME280;41724;51.176;-0.708;2024-03-06T06:25:54;101501.95;;;7.07;62.84
55517;BME280;41724;51.176;-0.708;2024-03-06T06:28:21;101498.35;;;6.88;61.74
55517;BME280;41724;51.176;-0.708;2024-03-06T06:30:48;101501.46;;;7.33;61.37
55517;BME280;41724;51.176;-0.708;2024-03-06T06:33:15;101506.90;;;7.32;61.81
55517;BME280;41724;51.176;-0.708;2024-03-06T06:35:42;101506.89;;;6.95;62.21
55517;BME280;41724;51.176;-0.708;2024-03-06T06:38:09;101511.25;;;6.11;63.36
55517;BME280;41724;51.176;-0.708;2024-03-06T06:40:36;101513.91;;;5.43;65.32
55517;BME280;41724;51.176;-0.708;2024-03-06T06:43:04;101512.10;;;5.40;66.06
55517;BME280;41724;51.176;-0.708;2024-03-06T06:45:31;101509.09;;;5.94;67.99
55517;BME280;41724;51.176;-0.708;2024-03-06T06:47:58;101510.76;;;5.45;68.49
55517;BME280;41724;51.176;-0.708;2024-03-06T06:50:25;101518.47;;;6.31;67.63
55517;BME280;41724;51.176;-0.708;2024-03-06T06:52:53;101522.74;;;6.60;66.15
55517;BME280;41724;51.176;-0.708;2024-03-06T06:55:20;101527.46;;;6.44;65.46
55517;BME280;41724;51.176;-0.708;2024-03-06T06:57:47;101533.56;;;6.32;65.30
55517;BME280;41724;51.176;-0.708;2024-03-06T07:00:15;101532.44;;;6.70;64.30
55517;BME280;41724;51.176;-0.708;2024-03-06T07:02:42;101535.75;;;6.93;63.78
55517;BME280;41724;51.176;-0.708;2024-03-06T07:05:10;101539.00;;;6.82;64.71
55517;BME280;41724;51.176;-0.708;2024-03-06T07:07:38;101539.17;;;6.89;63.45
55517;BME280;41724;51.176;-0.708;2024-03-06T07:10:06;101541.06;;;7.18;64.08
55517;BME280;41724;51.176;-0.708;2024-03-06T07:12:34;101541.05;;;7.05;64.07
55517;BME280;41724;51.176;-0.708;2024-03-06T07:15:01;101550.80;;;7.42;63.30
55517;BME280;41724;51.176;-0.708;2024-03-06T07:17:28;101546.84;;;7.41;63.52
55517;BME280;41724;51.176;-0.708;2024-03-06T07:19:55;101544.73;;;7.27;63.24
55517;BME280;41724;51.176;-0.708;2024-03-06T07:22:22;101546.75;;;7.15;64.09
55517;BME280;41724;51.176;-0.708;2024-03-06T07:24:50;101548.39;;;7.50;63.94
55517;BME280;41724;51.176;-0.708;2024-03-06T07:27:17;101546.28;;;7.27;63.15
55517;BME280;41724;51.176;-0.708;2024-03-06T07:29:44;101545.43;;;7.30;64.06
55517;BME280;41724;51.176;-0.708;2024-03-06T07:32:11;101546.78;;;7.54;64.53
55517;BME280;41724;51.176;-0.708;2024-03-06T07:34:39;101550.19;;;7.62;63.96
55517;BME280;41724;51.176;-0.708;2024-03-06T07:37:06;101550.53;;;7.70;64.05
55517;BME280;41724;51.176;-0.708;2024-03-06T07:39:33;101548.86;;;7.87;63.86
55517;BME280;41724;51.176;-0.708;2024-03-06T07:42:00;101547.72;;;7.82;64.01
55517;BME280;41724;51.176;-0.708;2024-03-06T07:44:28;101551.70;;;7.98;64.91
55517;BME280;41724;51.176;-0.708;2024-03-06T07:46:55;101555.62;;;7.59;64.81
55517;BME280;41724;51.176;-0.708;2024-03-06T07:49:22;101556.53;;;7.87;64.11
55517;BME280;41724;51.176;-0.708;2024-03-06T07:51:48;101557.57;;;7.97;64.35
55517;BME280;41724;51.176;-0.708;2024-03-06T07:54:15;101553.39;;;8.36;64.53
55517;BME280;41724;51.176;-0.708;2024-03-06T07:56:42;101557.71;;;7.96;64.53
55517;BME280;41724;51.176;-0.708;2024-03-06T07:59:09;101559.79;;;7.96;65.56
55517;BME280;41724;51.176;-0.708;2024-03-06T08:01:36;101560.41;;;8.12;65.43
55517;BME280;41724;51.176;-0.708;2024-03-06T08:04:03;101563.64;;;8.34;65.42
55517;BME280;41724;51.176;-0.708;2024-03-06T08:06:30;101567.81;;;8.66;64.93
55517;BME280;41724;51.176;-0.708;2024-03-06T08:08:58;101563.45;;;7.98;66.51
55517;BME280;41724;51.176;-0.708;2024-03-06T08:11:25;101560.22;;;8.39;65.64
55517;BME280;41724;51.176;-0.708;2024-03-06T08:13:57;101564.80;;;7.99;66.48
55517;BME280;41724;51.176;-0.708;2024-03-06T08:16:24;101568.37;;;7.84;66.35
55517;BME280;41724;51.176;-0.708;2024-03-06T08:18:52;101571.18;;;8.08;67.17
55517;BME280;41724;51.176;-0.708;2024-03-06T08:21:19;101568.86;;;8.62;65.84
55517;BME280;41724;51.176;-0.708;2024-03-06T08:23:45;101573.20;;;8.62;65.29
55517;BME280;41724;51.176;-0.708;2024-03-06T08:26:12;101575.54;;;7.51;66.47
55517;BME280;41724;51.176;-0.708;2024-03-06T08:28:40;101579.95;;;7.74;68.80
55517;BME280;41724;51.176;-0.708;2024-03-06T08:31:06;101581.54;;;8.43;66.78
55517;BME280;41724;51.176;-0.708;2024-03-06T08:33:34;101581.67;;;8.34;66.99
55517;BME280;41724;51.176;-0.708;2024-03-06T08:36:01;101587.45;;;8.16;66.50
55517;BME280;41724;51.176;-0.708;2024-03-06T08:38:28;101587.57;;;8.53;66.83
55517;BME280;41724;51.176;-0.708;2024-03-06T08:40:55;101587.44;;;8.64;66.52
55517;BME280;41724;51.176;-0.708;2024-03-06T08:43:22;101588.51;;;8.59;65.05
55517;BME280;41724;51.176;-0.708;2024-03-06T08:45:49;101587.70;;;8.72;65.47
55517;BME280;41724;51.176;-0.708;2024-03-06T08:48:16;101590.38;;;9.48;63.13
55517;BME280;41724;51.176;-0.708;2024-03-06T08:50:43;101588.36;;;8.89;65.30
55517;BME280;41724;51.176;-0.708;2024-03-06T08:53:10;101592.98;;;9.30;62.75
55517;BME280;41724;51.176;-0.708;2024-03-06T08:55:37;101595.97;;;9.40;64.41
55517;BME280;41724;51.176;-0.708;2024-03-06T08:58:04;101600.43;;;10.07;63.63
55517;BME280;41724;51.176;-0.708;2024-03-06T09:00:30;101603.09;;;9.61;65.79
55517;BME280;41724;51.176;-0.708;2024-03-06T09:02:57;101610.04;;;9.95;64.76
55517;BME280;41724;51.176;-0.708;2024-03-06T09:05:24;101612.71;;;9.91;65.85
55517;BME280;41724;51.176;-0.708;2024-03-06T09:07:52;101611.41;;;9.88;65.09
55517;BME280;41724;51.176;-0.708;2024-03-06T09:10:19;101610.59;;;10.10;65.17
55517;BME280;41724;51.176;-0.708;2024-03-06T09:12:46;101604.55;;;10.21;63.88
55517;BME280;41724;51.176;-0.708;2024-03-06T09:15:14;101608.00;;;10.40;63.15
55517;BME280;41724;51.176;-0.708;2024-03-06T09:17:41;101607.82;;;10.80;62.91
55517;BME280;41724;51.176;-0.708;2024-03-06T09:20:09;101607.54;;;10.86;62.39
55517;BME280;41724;51.176;-0.708;2024-03-06T09:22:37;101609.38;;;10.62;64.67
55517;BME280;41724;51.176;-0.708;2024-03-06T09:25:05;101610.85;;;10.77;62.98
55517;BME280;41724;51.176;-0.708;2024-03-06T09:27:32;101616.61;;;11.31;62.77
55517;BME280;41724;51.176;-0.708;2024-03-06T09:30:00;101617.49;;;10.91;62.31
55517;BME280;41724;51.176;-0.708;2024-03-06T09:32:27;101618.99;;;10.89;62.46
55517;BME280;41724;51.176;-0.708;2024-03-06T09:34:55;101622.22;;;11.14;61.80
55517;BME280;41724;51.176;-0.708;2024-03-06T09:37:22;101627.13;;;9.55;64.54
55517;BME280;41724;51.176;-0.708;2024-03-06T09:39:49;101623.05;;;10.60;63.83
55517;BME280;41724;51.176;-0.708;2024-03-06T09:42:17;101628.21;;;10.74;64.19
55517;BME280;41724;51.176;-0.708;2024-03-06T09:44:44;101624.77;;;10.89;62.33
55517;BME280;41724;51.176;-0.708;2024-03-06T09:47:13;101627.93;;;11.19;62.66
55517;BME280;41724;51.176;-0.708;2024-03-06T09:49:41;101631.98;;;11.02;63.56
55517;BME280;41724;51.176;-0.708;2024-03-06T09:52:09;101634.14;;;10.82;63.82
55517;BME280;41724;51.176;-0.708;2024-03-06T09:54:37;101635.88;;;11.73;63.78
55517;BME280;41724;51.176;-0.708;2024-03-06T09:57:04;101636.55;;;11.37;63.59
55517;BME280;41724;51.176;-0.708;2024-03-06T09:59:32;101640.21;;;11.54;63.31
55517;BME280;41724;51.176;-0.708;2024-03-06T10:02:00;101646.11;;;11.69;62.54
55517;BME280;41724;51.176;-0.708;2024-03-06T10:04:28;101650.50;;;11.56;62.97
55517;BME280;41724;51.176;-0.708;2024-03-06T10:06:57;101649.50;;;11.67;63.08
55517;BME280;41724;51.176;-0.708;2024-03-06T10:09:24;101649.87;;;11.23;65.13
55517;BME280;41724;51.176;-0.708;2024-03-06T10:11:52;101649.85;;;11.36;64.11
55517;BME280;41724;51.176;-0.708;2024-03-06T10:14:20;101646.17;;;11.48;64.72
55517;BME280;41724;51.176;-0.708;2024-03-06T10:16:53;101647.22;;;11.21;65.65
55517;BME280;41724;51.176;-0.708;2024-03-06T10:19:22;101644.64;;;10.74;66.30
55517;BME280;41724;51.176;-0.708;2024-03-06T10:21:50;101649.30;;;10.70;67.56
55517;BME280;41724;51.176;-0.708;2024-03-06T10:24:18;101647.11;;;11.84;64.16
55517;BME280;41724;51.176;-0.708;2024-03-06T10:26:46;101648.13;;;12.05;64.75
55517;BME280;41724;51.176;-0.708;2024-03-06T10:29:15;101646.64;;;12.31;63.01
55517;BME280;41724;51.176;-0.708;2024-03-06T10:31:48;101649.58;;;11.83;62.68
55517;BME280;41724;51.176;-0.708;2024-03-06T10:34:16;101651.05;;;12.13;62.70
55517;BME280;41724;51.176;-0.708;2024-03-06T10:36:44;101653.58;;;12.58;62.56
55517;BME280;41724;51.176;-0.708;2024-03-06T10:39:12;101652.99;;;12.19;62.95
55517;BME280;41724;51.176;-0.708;2024-03-06T10:41:40;101650.85;;;12.21;62.92
55517;BME280;41724;51.176;-0.708;2024-03-06T10:44:12;101649.49;;;12.19;62.82
55517;BME280;41724;51.176;-0.708;2024-03-06T10:46:43;101645.75;;;12.78;62.84
55517;BME280;41724;51.176;-0.708;2024-03-06T10:49:10;101651.99;;;12.45;62.12
55517;BME280;41724;51.176;-0.708;2024-03-06T10:51:40;101651.26;;;12.84;61.89
55517;BME280;41724;51.176;-0.708;2024-03-06T10:54:08;101652.45;;;12.83;61.90
55517;BME280;41724;51.176;-0.708;2024-03-06T10:56:35;101652.06;;;13.30;61.14
55517;BME280;41724;51.176;-0.708;2024-03-06T10:59:03;101653.92;;;13.37;61.31
55517;BME280;41724;51.176;-0.708;2024-03-06T11:01:31;101660.01;;;12.11;63.32
55517;BME280;41724;51.176;-0.708;2024-03-06T11:04:00;101661.59;;;12.35;64.02
55517;BME280;41724;51.176;-0.708;2024-03-06T11:06:27;101655.88;;;13.13;62.51
55517;BME280;41724;51.176;-0.708;2024-03-06T11:08:54;101655.13;;;13.05;63.36
55517;BME280;41724;51.176;-0.708;2024-03-06T11:11:23;101655.37;;;12.86;64.17
55517;BME280;41724;51.176;-0.708;2024-03-06T11:13:54;101654.30;;;13.44;62.42
55517;BME280;41724;51.176;-0.708;2024-03-06T11:16:27;101650.98;;;13.40;61.68
55517;BME280;41724;51.176;-0.708;2024-03-06T11:19:05;101655.93;;;13.45;61.74
55517;BME280;41724;51.176;-0.708;2024-03-06T11:21:32;101653.76;;;13.55;59.52
55517;BME280;41724;51.176;-0.708;2024-03-06T11:24:17;101652.14;;;13.96;60.86
55517;BME280;41724;51.176;-0.708;2024-03-06T11:26:47;101657.84;;;13.96;60.75
55517;BME280;41724;51.176;-0.708;2024-03-06T11:29:16;101653.97;;;14.45;59.84
55517;BME280;41724;51.176;-0.708;2024-03-06T11:31:59;101654.29;;;14.53;59.25
55517;BME280;41724;51.176;-0.708;2024-03-06T11:34:26;101658.45;;;14.13;58.49
55517;BME280;41724;51.176;-0.708;2024-03-06T11:36:55;101660.01;;;13.96;58.57
55517;BME280;41724;51.176;-0.708;2024-03-06T11:39:23;101663.15;;;13.94;58.46
55517;BME280;41724;51.176;-0.708;2024-03-06T11:41:50;101662.93;;;14.31;59.19
55517;BME280;41724;51.176;-0.708;2024-03-06T11:44:18;101666.51;;;12.81;63.57
55517;BME280;41724;51.176;-0.708;2024-03-06T11:46:47;101664.64;;;13.68;64.70
55517;BME280;41724;51.176;-0.708;2024-03-06T11:49:15;101662.59;;;14.04;63.97
55517;BME280;41724;51.176;-0.708;2024-03-06T11:51:43;101664.32;;;13.87;60.15
55517;BME280;41724;51.176;-0.708;2024-03-06T11:54:11;101665.69;;;13.22;61.68
55517;BME280;41724;51.176;-0.708;2024-03-06T11:56:39;101660.45;;;13.78;63.33
55517;BME280;41724;51.176;-0.708;2024-03-06T11:59:06;101661.53;;;14.31;63.47
55517;BME280;41724;51.176;-0.708;2024-03-06T12:01:34;101661.24;;;13.71;62.38
55517;BME280;41724;51.176;-0.708;2024-03-06T12:04:00;101663.92;;;14.55;61.89
55517;BME280;41724;51.176;-0.708;2024-03-06T12:06:28;101666.27;;;14.66;62.15
55517;BME280;41724;51.176;-0.708;2024-03-06T12:08:55;101667.22;;;14.55;65.31
55517;BME280;41724;51.176;-0.708;2024-03-06T12:11:22;101664.21;;;13.62;65.84
55517;BME280;41724;51.176;-0.708;2024-03-06T12:13:49;101660.59;;;13.68;65.31
55517;BME280;41724;51.176;-0.708;2024-03-06T12:16:18;101661.40;;;14.14;65.84
55517;BME280;41724;51.176;-0.708;2024-03-06T12:18:46;101660.91;;;14.06;66.06
55517;BME280;41724;51.176;-0.708;2024-03-06T12:21:13;101660.54;;;14.17;56.91
55517;BME280;41724;51.176;-0.708;2024-03-06T12:23:40;101661.27;;;14.11;58.06
55517;BME280;41724;51.176;-0.708;2024-03-06T12:26:08;101656.56;;;13.87;59.81
55517;BME280;41724;51.176;-0.708;2024-03-06T12:28:36;101661.60;;;14.34;64.98
55517;BME280;41724;51.176;-0.708;2024-03-06T12:31:03;101661.75;;;14.11;59.40
55517;BME280;41724;51.176;-0.708;2024-03-06T12:33:31;101663.07;;;13.95;59.71
55517;BME280;41724;51.176;-0.708;2024-03-06T12:36:02;101668.91;;;13.25;66.88
55517;BME280;41724;51.176;-0.708;2024-03-06T12:38:29;101668.92;;;13.00;63.61
55517;BME280;41724;51.176;-0.708;2024-03-06T12:40:57;101664.61;;;13.22;61.87
55517;BME280;41724;51.176;-0.708;2024-03-06T12:43:24;101660.19;;;13.40;61.29
55517;BME280;41724;51.176;-0.708;2024-03-06T12:45:51;101659.95;;;13.45;66.34
55517;BME280;41724;51.176;-0.708;2024-03-06T12:48:19;101665.09;;;12.81;64.13
55517;BME280;41724;51.176;-0.708;2024-03-06T12:50:47;101662.75;;;13.07;60.99
55517;BME280;41724;51.176;-0.708;2024-03-06T12:53:14;101663.06;;;13.25;62.96